createdAt,value
2022-09-30T00:00:33.213Z,1.38
2022-09-30T00:03:18.738Z,1.85
2022-09-30T00:06:09.014Z,1.63
2022-09-30T00:08:55.094Z,1.58
2022-09-30T00:11:42.341Z,1.98
2022-09-30T00:14:27.643Z,1.95
2022-09-30T00:17:14.715Z,1.65
2022-09-30T00:20:00.516Z,1.88
2022-09-30T00:22:46.341Z,1.88
2022-09-30T00:25:32.477Z,1.60
2022-09-30T00:28:18.091Z,1.50
2022-09-30T00:31:07.458Z,1.75
2022-09-30T00:34:09.046Z,1.73
2022-09-30T00:36:56.525Z,1.60
2022-09-30T00:39:42.165Z,1.73
2022-09-30T00:42:29.953Z,1.90
2022-09-30T00:45:18.050Z,1.80
2022-09-30T00:48:23.444Z,1.90
2022-09-30T00:51:09.154Z,1.63
2022-09-30T00:53:59.982Z,1.70
2022-09-30T00:57:00.299Z,1.30
2022-09-30T00:59:50.615Z,1.40
2022-09-30T01:02:37.211Z,1.40
2022-09-30T01:05:25.391Z,1.58
2022-09-30T01:08:12.411Z,1.60
2022-09-30T01:10:57.592Z,1.52
2022-09-30T01:13:53.932Z,1.60
2022-09-30T01:16:42.517Z,1.40
2022-09-30T01:20:05.821Z,1.65
2022-09-30T01:23:10.367Z,1.30
2022-09-30T01:26:00.015Z,1.30
2022-09-30T01:29:07.624Z,1.60
2022-09-30T01:32:08.439Z,1.30
2022-09-30T01:35:04.588Z,1.40
2022-09-30T01:38:15.099Z,1.50
2022-09-30T01:41:19.590Z,1.50
2022-09-30T01:44:19.072Z,2.08
2022-09-30T01:47:07.369Z,2.00
2022-09-30T01:50:23.143Z,1.73
2022-09-30T01:53:33.181Z,1.80
2022-09-30T01:56:27.915Z,1.90
2022-09-30T01:59:33.640Z,1.80
2022-09-30T02:02:33.094Z,1.70
2022-09-30T02:05:33.913Z,1.27
2022-09-30T02:08:31.764Z,1.80
2022-09-30T02:11:25.039Z,1.52
2022-09-30T02:14:22.509Z,1.50
2022-09-30T02:17:20.945Z,1.98
2022-09-30T02:20:10.520Z,1.48
2022-09-30T02:23:04.251Z,1.50
2022-09-30T02:25:55.649Z,1.52
2022-09-30T02:28:53.358Z,1.42
2022-09-30T02:31:43.416Z,1.40
2022-09-30T02:34:42.172Z,1.20
2022-09-30T02:37:41.043Z,1.52
2022-09-30T02:40:50.896Z,1.33
2022-09-30T02:46:50.802Z,1.38
2022-09-30T02:50:01.131Z,1.40
2022-09-30T02:53:00.889Z,1.33
2022-09-30T02:55:58.058Z,1.30
2022-09-30T02:58:45.302Z,1.77
2022-09-30T03:01:31.246Z,1.95
2022-09-30T03:04:24.151Z,2.33
2022-09-30T03:07:11.213Z,2.00
2022-09-30T03:09:59.069Z,2.40
2022-09-30T03:13:13.399Z,1.70
2022-09-30T03:16:21.978Z,1.50
2022-09-30T03:19:51.845Z,1.63
2022-09-30T03:22:47.748Z,1.75
2022-09-30T03:25:41.213Z,1.88
2022-09-30T03:28:48.470Z,1.60
2022-09-30T03:31:52.414Z,2.05
2022-09-30T03:35:04.450Z,1.90
2022-09-30T03:38:02.460Z,2.10
2022-09-30T03:41:12.910Z,2.25
2022-09-30T03:44:10.870Z,3.17
2022-09-30T03:47:08.560Z,3.25
2022-09-30T03:50:00.035Z,3.10
2022-09-30T03:52:46.445Z,2.97
2022-09-30T03:55:33.405Z,3.42
2022-09-30T03:58:20.540Z,3.05
2022-09-30T04:01:06.382Z,3.13
2022-09-30T04:03:53.725Z,2.92
2022-09-30T04:06:39.130Z,2.33
2022-09-30T04:09:25.009Z,2.55
2022-09-30T04:12:11.908Z,2.13
2022-09-30T04:14:57.463Z,2.70
2022-09-30T04:17:43.351Z,2.10
2022-09-30T04:20:30.781Z,2.17
2022-09-30T04:23:16.908Z,1.70
2022-09-30T04:26:03.773Z,1.92
2022-09-30T04:28:52.780Z,1.88
2022-09-30T04:31:39.974Z,1.70
2022-09-30T04:34:31.918Z,1.85
2022-09-30T04:37:18.337Z,2.47
2022-09-30T04:40:04.448Z,1.95
2022-09-30T04:42:50.345Z,2.00
2022-09-30T04:45:35.948Z,1.90
2022-09-30T04:48:24.925Z,2.03
2022-09-30T04:51:13.120Z,1.83
2022-09-30T04:53:58.878Z,2.30
2022-09-30T04:56:44.976Z,1.52
2022-09-30T04:59:31.338Z,1.92
2022-09-30T05:02:17.136Z,2.10
2022-09-30T05:05:03.689Z,1.80
2022-09-30T05:07:49.272Z,1.90
2022-09-30T05:10:34.834Z,1.70
2022-09-30T05:13:20.612Z,1.50
2022-09-30T05:16:07.957Z,1.83
2022-09-30T05:18:55.573Z,1.75
2022-09-30T05:21:44.903Z,2.00
2022-09-30T05:24:30.944Z,1.88
2022-09-30T05:27:18.043Z,1.92
2022-09-30T05:30:06.563Z,1.70
2022-09-30T05:32:52.287Z,1.83
2022-09-30T05:35:41.530Z,1.83
2022-09-30T05:38:27.950Z,1.65
2022-09-30T05:41:14.848Z,1.88
2022-09-30T05:44:01.203Z,3.03
2022-09-30T05:46:47.189Z,2.08
2022-09-30T05:49:34.492Z,2.10
2022-09-30T05:52:22.229Z,1.90
2022-09-30T05:55:08.382Z,1.95
2022-09-30T05:57:54.166Z,1.85
2022-09-30T06:00:42.178Z,2.08
2022-09-30T06:03:27.392Z,2.28
2022-09-30T06:06:14.729Z,1.80
2022-09-30T06:09:00.320Z,2.20
2022-09-30T06:11:45.873Z,2.67
2022-09-30T06:14:31.485Z,2.70
2022-09-30T06:17:18.562Z,2.80
2022-09-30T06:20:05.529Z,2.45
2022-09-30T06:22:51.554Z,2.25
2022-09-30T06:25:36.765Z,2.20
2022-09-30T06:28:23.115Z,2.35
2022-09-30T06:31:09.558Z,2.13
2022-09-30T06:33:54.992Z,2.95
2022-09-30T06:36:40.442Z,2.35
2022-09-30T06:39:27.815Z,2.30
2022-09-30T06:42:13.271Z,2.10
2022-09-30T06:44:58.943Z,2.58
2022-09-30T06:47:54.649Z,2.40
2022-09-30T06:50:57.530Z,2.20
2022-09-30T06:53:48.143Z,2.15
2022-09-30T06:56:37.020Z,2.22
2022-09-30T06:59:23.789Z,2.38
2022-09-30T07:02:11.461Z,2.05
2022-09-30T07:04:57.349Z,2.40
2022-09-30T07:07:43.859Z,2.38
2022-09-30T07:10:29.588Z,2.25
2022-09-30T07:13:15.055Z,2.40
2022-09-30T07:16:01.201Z,2.30
2022-09-30T07:18:47.469Z,2.63
2022-09-30T07:21:35.238Z,2.30
2022-09-30T07:24:21.310Z,2.90
2022-09-30T07:27:07.539Z,2.75
2022-09-30T07:30:14.160Z,3.00
2022-09-30T07:32:59.083Z,2.78
2022-09-30T07:35:55.146Z,2.90
2022-09-30T07:38:42.185Z,3.13
2022-09-30T07:41:29.115Z,2.70
2022-09-30T07:44:15.995Z,2.80
2022-09-30T07:47:03.083Z,2.75
2022-09-30T07:49:50.595Z,3.35
2022-09-30T07:52:35.753Z,2.78
2022-09-30T07:55:21.589Z,2.78
2022-09-30T07:58:10.469Z,2.63
2022-09-30T08:00:56.243Z,2.30
2022-09-30T08:03:44.576Z,2.53
2022-09-30T08:06:31.370Z,2.80
2022-09-30T08:09:19.462Z,2.50
2022-09-30T08:12:05.374Z,2.50
2022-09-30T08:14:50.989Z,2.63
2022-09-30T08:17:36.735Z,2.30
2022-09-30T08:20:22.776Z,2.42
2022-09-30T08:23:08.574Z,3.30
2022-09-30T08:26:02.498Z,2.53
2022-09-30T08:28:48.670Z,2.50
2022-09-30T08:31:34.537Z,2.53
2022-09-30T08:34:20.038Z,2.38
2022-09-30T08:37:09.245Z,2.42
2022-09-30T08:39:54.898Z,2.45
2022-09-30T08:42:52.773Z,2.20
2022-09-30T08:46:10.439Z,2.38
2022-09-30T08:49:33.230Z,2.38
2022-09-30T08:52:30.439Z,2.53
2022-09-30T08:55:39.723Z,3.45
2022-09-30T08:58:29.631Z,3.00
2022-09-30T09:01:26.409Z,2.85
2022-09-30T09:04:13.825Z,2.72
2022-09-30T09:07:10.394Z,3.08
2022-09-30T09:10:24.089Z,3.50
2022-09-30T09:13:39.830Z,3.35
2022-09-30T09:16:36.863Z,4.68
2022-09-30T09:19:25.804Z,4.55
2022-09-30T09:22:11.840Z,5.15
2022-09-30T09:24:58.794Z,5.10
2022-09-30T09:27:56.422Z,4.53
2022-09-30T09:30:55.138Z,4.85
2022-09-30T09:33:41.102Z,4.83
2022-09-30T09:36:48.865Z,4.88
2022-09-30T09:40:07.730Z,5.50
2022-09-30T09:43:03.940Z,4.95
2022-09-30T09:46:14.379Z,4.88
2022-09-30T09:49:20.817Z,4.45
2022-09-30T09:52:26.328Z,5.07
2022-09-30T09:55:21.499Z,4.88
2022-09-30T09:58:17.366Z,4.65
2022-09-30T10:01:31.769Z,5.13
2022-09-30T10:04:24.618Z,5.80
2022-09-30T10:07:15.061Z,5.10
2022-09-30T10:10:23.110Z,5.43
2022-09-30T10:13:23.163Z,4.90
2022-09-30T10:16:43.232Z,5.20
2022-09-30T10:19:32.484Z,5.15
2022-09-30T10:22:30.426Z,4.55
2022-09-30T10:25:23.041Z,4.82
2022-09-30T10:28:25.110Z,4.57
2022-09-30T10:31:34.422Z,3.72
2022-09-30T10:34:19.697Z,3.58
2022-09-30T10:37:17.381Z,3.78
2022-09-30T10:40:09.003Z,3.20
2022-09-30T10:42:56.033Z,3.70
2022-09-30T10:45:52.590Z,3.88
2022-09-30T10:48:49.793Z,4.00
2022-09-30T10:51:36.662Z,3.65
2022-09-30T10:54:36.813Z,3.25
2022-09-30T10:57:29.757Z,3.75
2022-09-30T11:00:21.629Z,3.30
2022-09-30T11:03:25.567Z,3.58
2022-09-30T11:06:15.101Z,3.50
2022-09-30T11:09:11.808Z,3.80
2022-09-30T11:12:03.923Z,3.80
2022-09-30T11:15:03.597Z,4.35
2022-09-30T11:18:07.026Z,3.80
2022-09-30T11:21:00.562Z,3.42
2022-09-30T11:24:00.507Z,3.47
2022-09-30T11:27:01.293Z,3.75
2022-09-30T11:30:02.019Z,3.60
2022-09-30T11:33:01.849Z,3.65
2022-09-30T11:36:06.128Z,3.50
2022-09-30T11:39:16.492Z,3.22
2022-09-30T11:42:14.157Z,4.15
2022-09-30T11:45:31.820Z,4.00
2022-09-30T11:48:41.354Z,3.53
2022-09-30T11:51:48.478Z,3.05
2022-09-30T11:54:55.780Z,3.20
2022-09-30T11:57:47.425Z,3.03
2022-09-30T12:00:37.720Z,3.30
2022-09-30T12:03:33.537Z,3.10
2022-09-30T12:06:32.418Z,3.25
2022-09-30T12:09:24.103Z,3.00
2022-09-30T12:12:17.195Z,2.75
2022-09-30T12:15:06.261Z,3.05
2022-09-30T12:18:16.255Z,2.93
2022-09-30T12:24:25.682Z,2.97
2022-09-30T12:27:44.721Z,3.10
2022-09-30T12:30:31.270Z,3.22
2022-09-30T12:33:52.484Z,3.88
2022-09-30T12:37:02.583Z,3.25
2022-09-30T12:40:06.237Z,3.47
2022-09-30T12:43:04.078Z,3.08
2022-09-30T12:46:01.887Z,3.35
2022-09-30T12:48:55.907Z,3.80
2022-09-30T12:51:48.777Z,3.25
2022-09-30T12:54:41.101Z,3.40
2022-09-30T12:57:32.782Z,3.17
2022-09-30T13:00:21.135Z,3.42
2022-09-30T13:03:17.967Z,3.00
2022-09-30T13:06:06.539Z,3.08
2022-09-30T13:09:17.207Z,2.63
2022-09-30T13:12:02.499Z,2.83
2022-09-30T13:14:48.065Z,3.10
2022-09-30T13:17:36.156Z,2.63
2022-09-30T13:20:55.041Z,2.78
2022-09-30T13:23:40.630Z,3.40
2022-09-30T13:26:29.047Z,2.72
2022-09-30T13:29:14.585Z,2.63
2022-09-30T13:32:04.160Z,2.70
2022-09-30T13:34:56.086Z,2.63
2022-09-30T13:37:41.311Z,3.20
2022-09-30T13:40:49.824Z,2.70
2022-09-30T13:43:39.422Z,2.90
2022-09-30T13:46:31.007Z,3.08
2022-09-30T13:49:34.200Z,3.42
2022-09-30T13:52:24.631Z,3.42
2022-09-30T13:55:33.946Z,3.00
2022-09-30T13:58:41.368Z,3.60
2022-09-30T14:01:53.618Z,3.08
2022-09-30T14:05:00.894Z,2.90
2022-09-30T14:07:51.467Z,2.70
2022-09-30T14:10:57.101Z,2.40
2022-09-30T14:13:56.544Z,2.30
2022-09-30T14:17:19.986Z,2.25
2022-09-30T14:20:29.326Z,2.75
2022-09-30T14:23:19.241Z,2.75
2022-09-30T14:26:14.592Z,2.60
2022-09-30T14:29:44.010Z,2.53
2022-09-30T14:32:47.408Z,2.00
2022-09-30T14:35:36.037Z,1.92
2022-09-30T14:38:27.969Z,2.10
2022-09-30T14:41:19.215Z,1.42
2022-09-30T14:44:08.133Z,1.67
2022-09-30T14:47:00.852Z,1.90
2022-09-30T14:49:46.260Z,2.15
2022-09-30T14:52:41.525Z,1.95
2022-09-30T14:55:35.696Z,2.47
2022-09-30T14:58:30.306Z,2.53
2022-09-30T15:01:17.999Z,2.20
2022-09-30T15:04:08.491Z,2.80
2022-09-30T15:06:55.286Z,2.58
2022-09-30T15:09:43.825Z,2.35
2022-09-30T15:12:29.694Z,2.38
2022-09-30T15:15:36.446Z,2.70
2022-09-30T15:18:46.545Z,2.55
2022-09-30T15:24:20.226Z,2.97
2022-09-30T15:27:14.810Z,2.53
2022-09-30T15:30:32.995Z,2.30
2022-09-30T15:33:24.162Z,2.20
2022-09-30T15:36:18.644Z,3.10
2022-09-30T15:39:07.122Z,2.70
2022-09-30T15:41:53.057Z,2.40
2022-09-30T15:44:39.650Z,2.40
2022-09-30T15:47:27.733Z,2.13
2022-09-30T15:50:48.043Z,2.15
2022-09-30T15:53:36.664Z,1.80
2022-09-30T15:56:26.843Z,1.92
2022-09-30T15:59:14.396Z,2.58
2022-09-30T16:01:59.662Z,1.98
2022-09-30T16:04:51.841Z,1.63
2022-09-30T16:07:37.853Z,1.70
2022-09-30T16:10:23.383Z,1.90
2022-09-30T16:13:14.317Z,2.33
2022-09-30T16:16:02.054Z,2.38
2022-09-30T16:18:49.500Z,2.08
2022-09-30T16:21:44.887Z,1.50
2022-09-30T16:24:32.244Z,1.73
2022-09-30T16:27:30.206Z,1.70
2022-09-30T16:30:18.448Z,2.20
2022-09-30T16:33:06.184Z,1.73
2022-09-30T16:35:51.663Z,2.00
2022-09-30T16:38:37.409Z,1.95
2022-09-30T16:41:25.244Z,1.45
2022-09-30T16:44:10.507Z,1.77
2022-09-30T16:47:06.334Z,2.55
2022-09-30T16:49:54.231Z,1.52
2022-09-30T16:52:40.171Z,1.30
2022-09-30T16:55:26.709Z,1.50
2022-09-30T16:58:12.763Z,1.75
2022-09-30T17:01:00.428Z,2.53
2022-09-30T17:03:46.576Z,2.03
2022-09-30T17:06:33.019Z,2.40
2022-09-30T17:09:19.612Z,2.50
2022-09-30T17:12:06.101Z,2.70
2022-09-30T17:14:52.219Z,2.88
2022-09-30T17:17:37.675Z,3.97
2022-09-30T17:20:28.284Z,3.60
2022-09-30T17:23:14.648Z,3.10
2022-09-30T17:26:00.123Z,2.50
2022-09-30T17:28:46.255Z,2.35
2022-09-30T17:31:32.630Z,2.70
2022-09-30T17:34:19.586Z,2.15
2022-09-30T17:39:54.013Z,2.13
2022-09-30T17:42:58.838Z,1.77
2022-09-30T17:45:46.606Z,2.05
2022-09-30T17:48:33.267Z,2.15
2022-09-30T17:51:19.852Z,2.50
2022-09-30T17:54:06.907Z,2.40
2022-09-30T17:56:53.005Z,2.20
2022-09-30T17:59:38.722Z,2.65
2022-09-30T18:02:25.248Z,2.47
2022-09-30T18:05:11.922Z,2.33
2022-09-30T18:07:57.760Z,2.30
2022-09-30T18:10:43.647Z,2.03
2022-09-30T18:13:29.680Z,2.45
2022-09-30T18:16:15.434Z,1.95
2022-09-30T18:19:03.139Z,2.67
2022-09-30T18:21:49.622Z,2.58
2022-09-30T18:24:53.585Z,2.22
2022-09-30T18:27:39.089Z,2.28
2022-09-30T18:30:25.238Z,2.10
2022-09-30T18:33:11.323Z,2.30
2022-09-30T18:36:00.712Z,2.30
2022-09-30T18:38:46.141Z,2.50
2022-09-30T18:41:33.852Z,2.78
2022-09-30T18:44:22.325Z,2.38
2022-09-30T18:47:08.368Z,2.45
2022-09-30T18:49:54.074Z,2.38
2022-09-30T18:52:40.881Z,2.17
2022-09-30T18:55:28.025Z,3.60
2022-09-30T18:58:17.392Z,5.00
2022-09-30T19:01:04.115Z,5.65
2022-09-30T19:03:50.490Z,4.47
2022-09-30T19:06:36.781Z,4.25
2022-09-30T19:09:26.384Z,3.85
2022-09-30T19:12:12.531Z,2.95
2022-09-30T19:14:57.951Z,2.55
2022-09-30T19:17:47.168Z,2.40
2022-09-30T19:20:36.679Z,2.53
2022-09-30T19:23:22.132Z,3.20
2022-09-30T19:26:10.319Z,2.45
2022-09-30T19:28:57.284Z,2.40
2022-09-30T19:31:45.490Z,2.65
2022-09-30T19:34:32.580Z,2.80
2022-09-30T19:37:26.238Z,2.88
2022-09-30T19:40:21.273Z,2.63
2022-09-30T19:43:08.509Z,2.97
2022-09-30T19:46:04.699Z,2.33
2022-09-30T19:48:51.256Z,2.40
2022-09-30T19:51:36.713Z,2.60
2022-09-30T19:54:36.095Z,2.92
2022-09-30T19:57:26.013Z,2.50
2022-09-30T20:00:13.073Z,2.90
2022-09-30T20:02:58.416Z,2.30
2022-09-30T20:05:44.050Z,2.30
2022-09-30T20:08:30.981Z,2.45
2022-09-30T20:11:22.011Z,2.90
2022-09-30T20:14:28.004Z,2.30
2022-09-30T20:17:13.903Z,2.20
2022-09-30T20:20:18.077Z,2.40
2022-09-30T20:23:03.793Z,2.30
2022-09-30T20:25:51.490Z,2.28
2022-09-30T20:28:37.187Z,2.40
2022-09-30T20:31:22.622Z,2.25
2022-09-30T20:34:11.679Z,2.10
2022-09-30T20:36:57.248Z,2.20
2022-09-30T20:39:42.739Z,1.75
2022-09-30T20:42:30.978Z,2.10
2022-09-30T20:45:18.065Z,1.95
2022-09-30T20:48:04.157Z,2.17
2022-09-30T20:50:50.151Z,2.80
2022-09-30T20:53:39.333Z,2.00
2022-09-30T20:56:28.555Z,1.98
2022-09-30T20:59:18.658Z,1.73
2022-09-30T21:02:07.079Z,2.00
2022-09-30T21:04:53.348Z,1.75
2022-09-30T21:07:41.783Z,1.90
2022-09-30T21:10:29.004Z,2.10
2022-09-30T21:13:14.927Z,2.40
2022-09-30T21:16:01.984Z,2.40
2022-09-30T21:18:51.443Z,2.25
2022-09-30T21:21:37.226Z,1.98
2022-09-30T21:24:22.775Z,2.05
2022-09-30T21:27:08.209Z,2.28
2022-09-30T21:29:53.872Z,1.95
2022-09-30T21:32:42.983Z,2.03
2022-09-30T21:35:28.818Z,2.30
2022-09-30T21:38:17.683Z,1.77
2022-09-30T21:41:05.655Z,2.03
2022-09-30T21:43:51.068Z,2.00
2022-09-30T21:46:36.597Z,1.98
2022-09-30T21:49:26.436Z,1.90
2022-09-30T21:54:57.564Z,1.90
2022-09-30T21:57:45.768Z,2.15
2022-09-30T22:00:31.087Z,1.70
2022-09-30T22:03:16.652Z,1.80
2022-09-30T22:06:02.083Z,2.00
2022-09-30T22:08:47.786Z,1.77
2022-09-30T22:11:33.632Z,1.67
2022-09-30T22:14:19.076Z,2.60
2022-09-30T22:17:10.077Z,1.70
2022-09-30T22:19:57.779Z,1.77
2022-09-30T22:22:43.162Z,2.00
2022-09-30T22:25:32.626Z,1.80
2022-09-30T22:28:19.124Z,1.92
2022-09-30T22:31:16.316Z,2.13
2022-09-30T22:34:23.108Z,2.13
2022-09-30T22:37:27.927Z,2.25
2022-09-30T22:40:13.433Z,1.90
2022-09-30T22:42:59.337Z,1.95
2022-09-30T22:45:45.007Z,2.58
2022-09-30T22:48:31.656Z,2.28
2022-09-30T22:51:17.053Z,1.90
2022-09-30T22:54:03.484Z,1.85
2022-09-30T22:56:51.828Z,2.03
2022-09-30T22:59:37.989Z,1.77
2022-09-30T23:02:23.382Z,2.13
2022-09-30T23:05:09.095Z,1.83
2022-09-30T23:07:55.750Z,1.92
2022-09-30T23:10:52.012Z,1.73
2022-09-30T23:13:38.346Z,2.10
2022-09-30T23:16:23.896Z,2.28
2022-09-30T23:19:09.668Z,1.90
2022-09-30T23:21:55.953Z,2.08
2022-09-30T23:24:41.493Z,1.98
2022-09-30T23:27:27.070Z,2.00
2022-09-30T23:30:12.617Z,2.20
2022-09-30T23:32:58.315Z,2.25
2022-09-30T23:35:47.990Z,2.00
2022-09-30T23:38:34.002Z,2.40
2022-09-30T23:41:19.755Z,1.90
2022-09-30T23:44:05.559Z,2.10
2022-09-30T23:47:09.733Z,2.50
2022-09-30T23:49:55.620Z,2.22
2022-09-30T23:52:43.270Z,2.30
2022-09-30T23:55:29.748Z,2.33
2022-09-30T23:58:15.816Z,2.20
